Time;durP1;ratioP1;P1;durP2;ratioP2;P2;SDS_P1;SDS_P2;PMS_P1;PMS_P2;Temp;Humidity;BMP_temperature;BMP_pressure;BME280_temperature;BME280_humidity;BME280_pressure;Samples;Min_cycle;Max_cycle;Signal;HPM_P1;HPM_P2
2023/10/25 00:01:04;;;;;;;43.45;8.95;;;15.40;99.90;;;;;;5051198;28;20080;-53
2023/10/25 00:03:29;;;;;;;46.00;8.60;;;15.30;99.90;;;;;;5034604;28;20080;-53
2023/10/25 00:05:55;;;;;;;42.63;8.55;;;15.30;99.90;;;;;;5051255;28;20043;-53
2023/10/25 00:08:20;;;;;;;33.78;8.60;;;15.30;99.90;;;;;;5068843;28;20037;-53
2023/10/25 00:10:46;;;;;;;47.80;9.02;;;15.30;99.90;;;;;;5067620;28;20055;-53
2023/10/25 00:13:11;;;;;;;35.67;8.57;;;15.30;99.90;;;;;;5050934;28;20036;-53
2023/10/25 00:15:37;;;;;;;28.10;7.43;;;15.20;99.90;;;;;;5051171;28;20021;-53
2023/10/25 00:18:03;;;;;;;35.17;7.53;;;15.30;99.90;;;;;;5050874;28;20060;-53
2023/10/25 00:20:28;;;;;;;37.58;7.88;;;15.20;99.90;;;;;;5051009;28;20032;-53
2023/10/25 00:22:54;;;;;;;32.50;6.25;;;15.20;99.90;;;;;;5051305;28;20044;-52
2023/10/25 00:25:19;;;;;;;30.83;7.22;;;15.20;99.90;;;;;;5050896;28;20021;-53
2023/10/25 00:27:45;;;;;;;30.83;7.15;;;15.10;99.90;;;;;;5068620;28;20366;-53
2023/10/25 00:30:11;;;;;;;26.27;6.90;;;15.20;99.90;;;;;;5068781;28;20377;-53
2023/10/25 00:32:36;;;;;;;36.03;7.47;;;15.10;99.90;;;;;;5034034;28;20021;-54
2023/10/25 00:35:02;;;;;;;32.25;6.82;;;15.10;99.90;;;;;;5068370;28;20085;-53
2023/10/25 00:37:27;;;;;;;29.83;6.95;;;15.10;99.90;;;;;;5050594;28;20024;-53
2023/10/25 00:39:56;;;;;;;37.45;7.85;;;15.10;99.90;;;;;;5068346;28;20048;-53
2023/10/25 00:42:22;;;;;;;25.77;7.28;;;15.20;99.90;;;;;;5050919;28;20020;-53
2023/10/25 00:44:48;;;;;;;23.30;5.82;;;15.10;99.90;;;;;;5050549;28;20025;-53
2023/10/25 00:47:13;;;;;;;26.95;5.68;;;15.10;99.90;;;;;;5068374;28;20021;-53
2023/10/25 00:49:39;;;;;;;24.60;5.88;;;15.10;99.90;;;;;;5050304;28;20033;-53
2023/10/25 00:52:04;;;;;;;20.65;5.90;;;15.20;99.90;;;;;;5050465;28;20020;-53
2023/10/25 00:54:30;;;;;;;23.27;5.78;;;15.10;99.90;;;;;;5050309;28;20037;-53
2023/10/25 00:56:55;;;;;;;20.60;5.60;;;15.10;99.90;;;;;;5050234;28;20028;-52
2023/10/25 00:59:21;;;;;;;26.13;6.00;;;15.10;99.90;;;;;;5050075;28;20068;-53
2023/10/25 01:01:47;;;;;;;26.38;5.97;;;15.00;99.90;;;;;;5050199;28;20048;-53
2023/10/25 01:04:13;;;;;;;22.90;5.35;;;15.00;99.90;;;;;;5049951;28;20572;-53
2023/10/25 01:06:39;;;;;;;23.23;5.45;;;15.00;99.90;;;;;;5050020;28;20085;-53
2023/10/25 01:09:04;;;;;;;21.15;4.88;;;15.00;99.90;;;;;;5049862;28;20037;-53
2023/10/25 01:11:30;;;;;;;23.30;5.55;;;15.00;99.90;;;;;;5050003;28;20028;-53
2023/10/25 01:13:55;;;;;;;20.83;4.95;;;15.00;99.90;;;;;;5049818;28;20025;-53
2023/10/25 01:16:21;;;;;;;19.80;5.05;;;14.90;99.90;;;;;;5067745;28;20021;-53
2023/10/25 01:18:46;;;;;;;24.70;5.35;;;14.90;99.90;;;;;;5049644;28;20033;-53
2023/10/25 01:21:12;;;;;;;20.20;5.45;;;15.00;99.90;;;;;;5067247;28;20033;-53
2023/10/25 01:23:37;;;;;;;13.43;4.35;;;15.00;99.90;;;;;;5049293;28;20087;-53
2023/10/25 01:26:03;;;;;;;16.88;4.57;;;15.00;99.90;;;;;;5049644;28;20495;-53
2023/10/25 01:28:28;;;;;;;15.02;3.75;;;15.00;99.90;;;;;;5049401;28;20037;-53
2023/10/25 01:30:54;;;;;;;13.90;4.07;;;15.00;99.90;;;;;;5049792;28;20469;-53
2023/10/25 01:33:19;;;;;;;18.08;5.07;;;14.90;99.90;;;;;;5049561;28;20469;-53
2023/10/25 01:35:45;;;;;;;19.58;4.50;;;14.90;99.90;;;;;;5066895;28;20071;-53
2023/10/25 01:38:10;;;;;;;12.35;4.32;;;15.00;99.90;;;;;;5049426;28;20033;-53
2023/10/25 01:40:36;;;;;;;10.43;4.25;;;14.90;99.90;;;;;;5049525;28;20021;-53
2023/10/25 01:43:01;;;;;;;16.02;4.38;;;14.90;99.90;;;;;;5065821;28;20029;-53
2023/10/25 01:45:27;;;;;;;16.92;4.63;;;14.90;99.90;;;;;;5049209;28;20031;-53
2023/10/25 01:47:53;;;;;;;14.50;4.38;;;15.00;99.90;;;;;;5066946;28;20037;-53
2023/10/25 01:50:19;;;;;;;14.85;4.03;;;15.00;99.90;;;;;;5067150;28;20021;-53
2023/10/25 01:52:44;;;;;;;16.02;4.22;;;14.90;99.90;;;;;;5049068;28;20029;-53
2023/10/25 01:55:10;;;;;;;16.83;4.43;;;14.90;99.90;;;;;;5049108;28;20374;-53
2023/10/25 01:57:35;;;;;;;10.20;3.72;;;15.00;99.90;;;;;;5066822;28;20029;-52
2023/10/25 02:00:06;;;;;;;14.48;3.67;;;14.90;99.90;;;;;;5066802;28;20485;-53
2023/10/25 02:02:32;;;;;;;8.10;3.63;;;14.90;99.90;;;;;;5049710;28;20036;-53
2023/10/25 02:04:58;;;;;;;11.68;4.05;;;15.00;99.90;;;;;;5066922;28;20021;-53
2023/10/25 02:07:23;;;;;;;12.07;3.88;;;15.00;99.90;;;;;;5048814;28;20100;-53
2023/10/25 02:09:49;;;;;;;10.57;4.50;;;14.90;99.90;;;;;;5049000;28;20021;-53
2023/10/25 02:12:14;;;;;;;11.32;5.00;;;14.90;99.90;;;;;;5048896;28;20025;-53
2023/10/25 02:14:40;;;;;;;14.43;5.20;;;14.90;99.90;;;;;;5066633;28;20132;-53
2023/10/25 02:17:05;;;;;;;9.90;5.03;;;14.90;99.90;;;;;;5048722;28;20029;-53
2023/10/25 02:19:31;;;;;;;17.50;4.95;;;14.90;99.90;;;;;;5048655;28;20037;-53
2023/10/25 02:21:58;;;;;;;10.65;4.75;;;14.90;99.90;;;;;;5048426;28;20043;-53
2023/10/25 02:24:24;;;;;;;12.05;4.15;;;14.90;99.90;;;;;;5048546;28;20054;-53
2023/10/25 02:26:51;;;;;;;10.98;4.38;;;14.90;99.90;;;;;;5066339;28;20021;-53
2023/10/25 02:29:16;;;;;;;15.32;4.38;;;14.90;99.90;;;;;;5066244;28;20059;-53
2023/10/25 02:31:42;;;;;;;7.93;4.13;;;14.90;99.90;;;;;;5048607;28;20053;-53
2023/10/25 02:34:07;;;;;;;9.77;4.75;;;14.90;99.90;;;;;;5065614;28;20029;-53
2023/10/25 02:36:33;;;;;;;14.38;6.07;;;14.90;99.90;;;;;;5048624;28;20090;-53
2023/10/25 02:38:58;;;;;;;9.25;5.20;;;14.90;99.90;;;;;;5066346;28;20053;-53
2023/10/25 02:41:24;;;;;;;7.50;4.57;;;15.00;99.90;;;;;;5031868;28;20085;-53
2023/10/25 02:43:53;;;;;;;12.63;4.63;;;14.90;99.90;;;;;;5048388;28;20029;-53
2023/10/25 02:46:19;;;;;;;10.43;4.88;;;14.90;99.90;;;;;;5049008;28;20021;-53
2023/10/25 02:48:44;;;;;;;10.68;4.57;;;14.80;99.90;;;;;;5048199;28;20122;-54
2023/10/25 02:51:10;;;;;;;10.98;4.93;;;14.80;99.90;;;;;;5065962;28;20024;-53
2023/10/25 02:53:36;;;;;;;11.70;4.53;;;14.80;99.90;;;;;;5048163;28;20025;-53
2023/10/25 02:56:05;;;;;;;14.05;4.57;;;14.80;99.90;;;;;;5048358;28;20033;-53
2023/10/25 02:58:31;;;;;;;10.27;4.75;;;14.80;99.90;;;;;;5066072;28;20044;-53
2023/10/25 03:00:56;;;;;;;11.57;4.43;;;14.80;99.90;;;;;;5048109;28;20025;-53
2023/10/25 03:03:32;;;;;;;9.68;4.45;;;14.80;99.90;;;;;;5048157;28;20086;-53
2023/10/25 03:05:58;;;;;;;10.77;4.00;;;14.80;99.90;;;;;;5048479;28;20108;-53
2023/10/25 03:08:23;;;;;;;7.00;4.05;;;14.80;99.90;;;;;;5047629;28;20036;-53
2023/10/25 03:10:49;;;;;;;7.18;3.97;;;14.80;99.90;;;;;;5047910;28;20025;-53
2023/10/25 03:13:15;;;;;;;6.90;3.78;;;14.70;99.90;;;;;;5048165;28;20116;-53
2023/10/25 03:15:40;;;;;;;8.82;4.70;;;14.70;99.90;;;;;;5048212;28;20021;-54
2023/10/25 03:18:06;;;;;;;7.57;3.72;;;14.70;99.90;;;;;;5048068;28;20037;-53
2023/10/25 03:20:32;;;;;;;7.70;3.85;;;14.70;99.90;;;;;;5047878;28;20060;-53
2023/10/25 03:22:58;;;;;;;8.70;3.67;;;14.70;99.90;;;;;;5047852;28;20037;-53
2023/10/25 03:25:23;;;;;;;9.70;4.03;;;14.70;99.90;;;;;;5031337;28;20029;-53
2023/10/25 03:27:49;;;;;;;6.18;3.55;;;14.70;99.90;;;;;;5047717;28;20079;-53
2023/10/25 03:30:15;;;;;;;8.52;3.72;;;14.70;99.90;;;;;;5065571;28;20029;-53
2023/10/25 03:32:41;;;;;;;5.68;2.90;;;14.60;99.90;;;;;;5047897;28;20041;-53
2023/10/25 03:35:06;;;;;;;7.18;3.63;;;14.60;99.90;;;;;;5047805;28;20021;-53
2023/10/25 03:37:32;;;;;;;8.43;3.60;;;14.70;99.90;;;;;;5065509;28;20039;-53
2023/10/25 03:39:58;;;;;;;6.85;3.90;;;14.70;99.90;;;;;;5065510;28;20028;-53
2023/10/25 03:42:23;;;;;;;9.60;3.88;;;14.60;99.90;;;;;;5047926;28;20048;-53
2023/10/25 03:44:49;;;;;;;7.13;4.18;;;14.60;99.90;;;;;;5066128;28;20108;-53
2023/10/25 03:47:14;;;;;;;5.90;3.70;;;14.60;99.90;;;;;;5069304;28;20037;-53
2023/10/25 03:49:40;;;;;;;7.88;3.78;;;14.60;99.90;;;;;;5069357;28;20076;-53
2023/10/25 03:52:05;;;;;;;8.48;4.03;;;14.60;99.90;;;;;;5051599;28;20025;-53
2023/10/25 03:54:31;;;;;;;8.30;4.68;;;14.50;99.90;;;;;;5069308;28;20025;-53
2023/10/25 03:56:56;;;;;;;9.25;4.28;;;14.50;99.90;;;;;;5069183;28;20021;-53
2023/10/25 03:59:22;;;;;;;6.20;3.40;;;14.50;99.90;;;;;;5051249;28;20044;-53
2023/10/25 04:01:48;;;;;;;8.90;4.05;;;14.50;99.90;;;;;;5051267;28;20079;-53
2023/10/25 04:04:13;;;;;;;8.43;3.45;;;14.50;99.90;;;;;;5069171;28;20029;-53
2023/10/25 04:06:39;;;;;;;7.95;3.30;;;14.40;99.90;;;;;;5051321;28;20021;-53
2023/10/25 04:09:04;;;;;;;7.30;3.33;;;14.40;99.90;;;;;;5069137;28;20104;-53
2023/10/25 04:11:30;;;;;;;9.45;3.33;;;14.40;99.90;;;;;;5068909;28;20052;-53
2023/10/25 04:13:55;;;;;;;6.18;3.47;;;14.40;99.90;;;;;;5050935;28;20044;-53
2023/10/25 04:16:21;;;;;;;6.22;3.35;;;14.40;99.90;;;;;;5068775;28;20032;-53
2023/10/25 04:18:46;;;;;;;6.65;3.15;;;14.40;99.90;;;;;;5051004;28;20063;-53
2023/10/25 04:21:12;;;;;;;8.38;3.45;;;14.40;99.90;;;;;;5050705;28;20048;-54
2023/10/25 04:23:38;;;;;;;6.88;3.53;;;14.40;99.90;;;;;;5050922;28;20037;-53
2023/10/25 04:26:08;;;;;;;9.43;2.97;;;14.40;99.90;;;;;;5069168;28;20098;-53
2023/10/25 04:28:34;;;;;;;4.93;3.00;;;14.40;99.90;;;;;;5058136;28;20036;-53
2023/10/25 04:31:00;;;;;;;8.40;3.78;;;14.30;99.90;;;;;;5060103;28;20028;-53
2023/10/25 04:33:26;;;;;;;13.43;3.67;;;14.30;99.90;;;;;;5050495;28;20033;-53
2023/10/25 04:35:51;;;;;;;23.02;4.22;;;14.30;99.90;;;;;;5050596;28;20021;-53
2023/10/25 04:38:17;;;;;;;18.73;4.78;;;14.30;99.90;;;;;;5050174;28;20064;-53
2023/10/25 04:40:42;;;;;;;21.75;4.00;;;14.30;99.90;;;;;;5050595;28;20042;-53
2023/10/25 04:43:08;;;;;;;15.20;3.65;;;14.30;99.90;;;;;;5050489;28;20085;-54
2023/10/25 04:45:37;;;;;;;36.42;4.65;;;14.30;99.90;;;;;;5050636;28;20032;-53
2023/10/25 04:48:03;;;;;;;10.80;3.70;;;14.20;99.90;;;;;;5068070;28;20040;-53
2023/10/25 04:50:34;;;;;;;15.20;3.67;;;14.20;99.90;;;;;;5050540;28;20025;-53
2023/10/25 04:53:01;;;;;;;97.57;12.05;;;14.20;99.90;;;;;;5068264;28;20033;-54
2023/10/25 04:55:29;;;;;;;56.10;7.90;;;14.20;99.90;;;;;;5068072;28;20029;-53
2023/10/25 04:57:55;;;;;;;88.35;10.38;;;14.20;99.90;;;;;;5067335;28;20037;-53
2023/10/25 05:00:20;;;;;;;104.35;13.05;;;14.20;99.90;;;;;;5067950;28;20067;-53
2023/10/25 05:02:46;;;;;;;80.78;11.25;;;14.20;99.90;;;;;;5050076;28;20033;-54
2023/10/25 05:05:11;;;;;;;62.42;9.00;;;14.20;99.90;;;;;;5033361;28;20025;-53
2023/10/25 05:07:37;;;;;;;60.00;8.60;;;14.20;99.90;;;;;;5067720;28;20032;-54
2023/10/25 05:10:07;;;;;;;53.42;8.40;;;14.10;99.90;;;;;;5049703;28;20025;-53
2023/10/25 05:12:38;;;;;;;53.30;6.93;;;14.10;99.90;;;;;;5049745;28;20116;-53
2023/10/25 05:15:05;;;;;;;39.75;6.43;;;14.10;99.90;;;;;;5049797;28;20033;-53
2023/10/25 05:17:31;;;;;;;42.42;7.20;;;14.10;99.90;;;;;;5049591;28;20044;-53
2023/10/25 05:19:57;;;;;;;44.13;6.90;;;14.10;99.90;;;;;;5067435;28;20396;-53
2023/10/25 05:22:26;;;;;;;30.95;5.25;;;14.10;99.90;;;;;;5049548;28;20489;-53
2023/10/25 05:24:52;;;;;;;32.85;6.05;;;14.10;99.90;;;;;;5049639;28;20029;-53
2023/10/25 05:27:18;;;;;;;42.15;6.60;;;14.10;99.90;;;;;;5049648;28;20079;-53
2023/10/25 05:29:44;;;;;;;32.28;5.13;;;14.10;99.90;;;;;;5032858;28;20440;-54
2023/10/25 05:32:12;;;;;;;34.97;6.10;;;14.10;99.90;;;;;;5067435;28;20084;-53
2023/10/25 05:34:38;;;;;;;37.88;5.78;;;14.10;99.90;;;;;;5049288;28;20029;-54
2023/10/25 05:37:03;;;;;;;25.15;5.93;;;14.00;99.90;;;;;;5049653;28;20047;-53
2023/10/25 05:39:29;;;;;;;43.25;6.20;;;14.00;99.90;;;;;;5032853;28;20055;-53
2023/10/25 05:41:55;;;;;;;21.38;5.47;;;14.00;99.90;;;;;;5049386;28;20116;-54
2023/10/25 05:44:20;;;;;;;33.03;5.95;;;14.00;99.90;;;;;;5049124;28;20040;-53
2023/10/25 05:46:46;;;;;;;39.10;6.68;;;14.00;99.90;;;;;;5032714;28;20033;-53
2023/10/25 05:49:12;;;;;;;39.15;7.28;;;14.00;99.90;;;;;;5066975;28;20033;-54
2023/10/25 05:51:38;;;;;;;42.15;6.38;;;14.00;99.90;;;;;;5049350;28;20542;-53
2023/10/25 05:54:03;;;;;;;38.17;7.32;;;14.00;99.90;;;;;;5049179;28;20029;-53
2023/10/25 05:56:29;;;;;;;38.10;6.70;;;14.00;99.90;;;;;;5049478;28;20481;-51
2023/10/25 05:58:55;;;;;;;37.83;6.18;;;14.00;99.90;;;;;;5063304;28;20416;-54
2023/10/25 06:01:30;;;;;;;38.58;5.90;;;13.90;99.90;;;;;;5033048;28;20029;-54
2023/10/25 06:03:56;;;;;;;33.90;5.53;;;13.90;99.90;;;;;;5064107;28;20076;-54
2023/10/25 06:06:22;;;;;;;29.42;5.80;;;14.00;99.90;;;;;;5046643;28;20051;-54
2023/10/25 06:08:47;;;;;;;30.83;5.35;;;13.90;99.90;;;;;;5030455;28;20037;-53
2023/10/25 06:11:13;;;;;;;28.50;5.18;;;13.90;99.90;;;;;;5063457;28;20470;-53
2023/10/25 06:13:39;;;;;;;40.60;6.38;;;13.90;99.90;;;;;;5047054;28;20029;-53
2023/10/25 06:16:05;;;;;;;31.10;5.57;;;13.80;99.90;;;;;;5046637;28;20035;-54
2023/10/25 06:18:31;;;;;;;29.02;5.60;;;13.80;99.90;;;;;;5048154;28;20040;-53
2023/10/25 06:20:56;;;;;;;26.20;5.07;;;13.90;99.90;;;;;;5072302;28;20048;-57
2023/10/25 06:23:22;;;;;;;32.40;5.38;;;13.80;99.90;;;;;;5034958;28;20032;-57
2023/10/25 06:25:47;;;;;;;24.30;5.57;;;13.90;99.90;;;;;;5050945;28;20093;-57
2023/10/25 06:28:13;;;;;;;26.48;5.50;;;13.80;99.90;;;;;;5083103;28;20033;-57
2023/10/25 06:30:38;;;;;;;36.33;5.38;;;13.90;99.90;;;;;;5074039;28;20017;-57
2023/10/25 06:33:04;;;;;;;28.65;5.15;;;13.80;99.90;;;;;;5066343;28;20446;-57
2023/10/25 06:35:30;;;;;;;27.77;5.13;;;13.80;99.90;;;;;;5085079;28;20538;-57
2023/10/25 06:37:56;;;;;;;32.08;6.35;;;13.90;99.90;;;;;;5047948;28;20136;-57
2023/10/25 06:40:22;;;;;;;50.80;7.28;;;13.80;99.90;;;;;;5043780;28;20036;-57
2023/10/25 06:42:48;;;;;;;36.83;5.95;;;13.80;99.90;;;;;;5066559;28;20036;-57
2023/10/25 06:45:16;;;;;;;56.13;7.53;;;13.80;99.90;;;;;;5083861;28;20048;-57
2023/10/25 06:47:42;;;;;;;36.88;6.93;;;13.80;99.90;;;;;;5085754;28;20029;-57
2023/10/25 06:50:10;;;;;;;61.20;9.88;;;13.80;99.90;;;;;;5068062;28;20056;-57
2023/10/25 06:52:36;;;;;;;30.45;6.30;;;13.80;99.90;;;;;;5051350;28;20089;-56
2023/10/25 06:55:02;;;;;;;44.38;7.78;;;13.80;99.90;;;;;;5067865;28;20025;-57
2023/10/25 06:57:28;;;;;;;39.22;6.45;;;13.80;99.90;;;;;;5067738;28;20473;-56
2023/10/25 06:59:54;;;;;;;43.67;7.57;;;13.80;99.90;;;;;;5051229;28;20598;-56
2023/10/25 07:02:19;;;;;;;52.80;7.72;;;13.80;99.90;;;;;;5085900;28;20025;-57
2023/10/25 07:04:46;;;;;;;50.85;8.20;;;13.80;99.90;;;;;;5086038;28;20063;-56
2023/10/25 07:07:11;;;;;;;51.50;8.23;;;13.80;99.90;;;;;;5050584;28;20092;-56
2023/10/25 07:09:37;;;;;;;49.55;8.13;;;13.80;99.90;;;;;;5051370;28;20029;-57
2023/10/25 07:12:03;;;;;;;61.30;7.45;;;13.80;99.90;;;;;;5067898;28;20047;-57
2023/10/25 07:14:30;;;;;;;53.75;8.70;;;13.90;99.90;;;;;;5085668;28;20029;-57
2023/10/25 07:16:56;;;;;;;63.08;10.35;;;13.80;99.90;;;;;;5085387;28;20029;-57
2023/10/25 07:19:21;;;;;;;46.63;9.07;;;13.90;99.90;;;;;;5068067;28;20032;-57
2023/10/25 07:21:47;;;;;;;61.72;8.57;;;13.90;99.90;;;;;;5089400;28;20036;-57
2023/10/25 07:24:12;;;;;;;33.38;7.10;;;13.90;99.90;;;;;;5071798;28;20087;-56
2023/10/25 07:26:38;;;;;;;43.10;6.85;;;13.90;99.90;;;;;;5089100;28;20406;-57
2023/10/25 07:29:04;;;;;;;51.92;7.60;;;13.90;99.90;;;;;;5071245;28;20036;-56
2023/10/25 07:31:30;;;;;;;30.98;6.57;;;13.90;99.90;;;;;;5071301;28;20035;-57
2023/10/25 07:33:55;;;;;;;39.50;6.38;;;13.90;99.90;;;;;;5088463;28;20036;-57
2023/10/25 07:36:21;;;;;;;47.30;8.07;;;13.90;99.90;;;;;;5070596;28;20017;-57
2023/10/25 07:38:46;;;;;;;45.88;7.80;;;13.90;99.90;;;;;;5089424;28;20146;-57
2023/10/25 07:41:12;;;;;;;36.47;7.78;;;13.90;99.90;;;;;;5070940;28;20570;-56
2023/10/25 07:43:37;;;;;;;60.22;8.10;;;13.90;99.90;;;;;;5054021;28;20040;-57
2023/10/25 07:46:04;;;;;;;39.35;8.40;;;14.00;99.90;;;;;;5053647;28;20028;-57
2023/10/25 07:48:30;;;;;;;53.17;8.13;;;14.00;99.90;;;;;;5070897;28;20527;-57
2023/10/25 07:51:04;;;;;;;57.15;9.05;;;14.10;99.90;;;;;;5088228;28;20131;-57
2023/10/25 07:53:30;;;;;;;46.55;7.63;;;14.00;99.90;;;;;;5037957;28;20259;-56
2023/10/25 07:55:56;;;;;;;65.97;9.02;;;14.00;99.90;;;;;;5070660;28;20040;-57
2023/10/25 07:58:22;;;;;;;57.33;8.65;;;14.00;99.90;;;;;;5071137;28;20032;-57
2023/10/25 08:00:48;;;;;;;59.97;8.55;;;14.00;99.90;;;;;;5070916;28;20074;-57
2023/10/25 08:03:16;;;;;;;45.22;8.23;;;14.00;99.90;;;;;;5088812;28;20040;-57
2023/10/25 08:05:43;;;;;;;50.65;8.90;;;14.10;99.90;;;;;;5087585;28;20048;-57
2023/10/25 08:08:09;;;;;;;68.65;10.10;;;14.10;99.90;;;;;;5053989;28;20485;-56
2023/10/25 08:10:34;;;;;;;61.38;8.68;;;14.10;99.90;;;;;;5071019;28;20029;-56
2023/10/25 08:13:00;;;;;;;50.47;8.55;;;14.10;99.90;;;;;;5084174;28;20350;-57
2023/10/25 08:15:25;;;;;;;50.10;8.30;;;14.10;99.90;;;;;;5053996;28;20495;-57
2023/10/25 08:17:54;;;;;;;40.47;8.82;;;14.10;99.90;;;;;;5078608;28;20025;-57
2023/10/25 08:20:19;;;;;;;53.67;8.93;;;14.20;99.90;;;;;;5085598;28;20020;-57
2023/10/25 08:22:45;;;;;;;53.42;9.60;;;14.20;99.90;;;;;;5069021;28;20049;-56
2023/10/25 08:25:10;;;;;;;47.08;7.68;;;14.20;99.90;;;;;;5055891;28;20025;-56
2023/10/25 08:27:36;;;;;;;42.60;7.00;;;14.20;99.90;;;;;;5086674;28;20028;-57
2023/10/25 08:30:03;;;;;;;47.03;8.30;;;14.20;99.90;;;;;;5085118;28;20042;-57
2023/10/25 08:32:29;;;;;;;63.40;9.18;;;14.20;99.90;;;;;;5086665;28;20028;-57
2023/10/25 08:34:54;;;;;;;51.83;7.85;;;14.30;99.90;;;;;;5069826;28;20028;-57
2023/10/25 08:37:22;;;;;;;38.78;6.78;;;14.30;99.90;;;;;;5086375;28;20052;-56
2023/10/25 08:39:48;;;;;;;45.40;7.68;;;14.30;99.90;;;;;;5070553;28;20029;-57
2023/10/25 08:42:13;;;;;;;46.60;8.60;;;14.30;99.90;;;;;;5061006;28;20034;-57
2023/10/25 08:44:41;;;;;;;51.00;8.65;;;14.30;99.90;;;;;;5100811;28;20042;-57
2023/10/25 08:47:08;;;;;;;38.80;8.13;;;14.30;99.90;;;;;;5074739;28;20039;-57
2023/10/25 08:49:34;;;;;;;51.55;8.98;;;14.40;99.90;;;;;;5055822;28;20052;-57
2023/10/25 08:52:01;;;;;;;69.70;10.45;;;14.40;99.90;;;;;;5047951;28;20591;-57
2023/10/25 08:54:28;;;;;;;60.15;10.43;;;14.40;99.90;;;;;;5054914;28;20025;-57
2023/10/25 08:56:54;;;;;;;42.88;9.98;;;14.40;99.90;;;;;;5052561;28;20683;-57
2023/10/25 08:59:19;;;;;;;49.75;9.95;;;14.40;99.90;;;;;;5060351;28;20071;-57
2023/10/25 09:01:45;;;;;;;49.40;9.60;;;14.40;99.90;;;;;;5068498;28;20773;-57
2023/10/25 09:04:10;;;;;;;59.65;9.88;;;14.40;99.90;;;;;;5088155;28;20047;-57
2023/10/25 09:06:36;;;;;;;59.35;9.45;;;14.50;99.90;;;;;;5083321;28;20032;-57
2023/10/25 09:09:05;;;;;;;38.20;9.20;;;14.50;99.90;;;;;;5086692;28;20061;-57
2023/10/25 09:11:42;;;;;;;44.17;8.52;;;14.50;99.90;;;;;;5083347;28;20044;-57
2023/10/25 09:14:09;;;;;;;44.53;8.43;;;14.60;99.90;;;;;;5069522;28;20488;-57
2023/10/25 09:16:35;;;;;;;39.20;8.40;;;14.60;99.90;;;;;;5073288;28;20093;-57
2023/10/25 09:19:05;;;;;;;42.38;9.02;;;14.60;99.90;;;;;;5074162;28;20136;-57
2023/10/25 09:21:30;;;;;;;60.70;10.15;;;14.70;99.90;;;;;;5083022;28;20028;-57
2023/10/25 09:23:57;;;;;;;65.68;10.10;;;14.70;99.90;;;;;;5089582;28;20531;-57
2023/10/25 09:26:23;;;;;;;48.97;9.27;;;14.70;99.90;;;;;;5085731;28;20051;-57
2023/10/25 09:28:52;;;;;;;46.15;9.32;;;14.70;99.90;;;;;;5055809;28;20493;-58
2023/10/25 09:31:37;;;;;;;64.25;10.70;;;14.70;99.90;;;;;;5065867;28;20032;-57
2023/10/25 09:34:08;;;;;;;62.70;11.13;;;14.70;99.90;;;;;;5067070;28;20037;-57
2023/10/25 09:36:33;;;;;;;49.63;9.75;;;14.80;99.90;;;;;;5067329;28;20099;-57
2023/10/25 09:38:59;;;;;;;60.08;9.93;;;14.80;99.90;;;;;;5086579;28;20050;-57
2023/10/25 09:41:26;;;;;;;91.32;13.60;;;14.90;99.90;;;;;;5077118;28;20076;-57
2023/10/25 09:43:53;;;;;;;68.82;10.82;;;14.90;99.90;;;;;;5062812;28;20037;-57
2023/10/25 09:46:22;;;;;;;87.22;12.57;;;14.80;99.90;;;;;;5071589;28;20024;-57
2023/10/25 09:49:09;;;;;;;75.00;11.27;;;14.90;99.90;;;;;;5071558;28;20032;-57
2023/10/25 09:51:55;;;;;;;;;;;15.00;99.90;;;;;;5069380;28;20020;-57
2023/10/25 09:54:29;;;;;;;74.95;10.63;;;14.90;99.90;;;;;;5060946;28;19944;-57
2023/10/25 09:56:55;;;;;;;76.30;10.85;;;15.00;99.90;;;;;;5047192;28;20418;-57
2023/10/25 09:59:20;;;;;;;82.15;12.05;;;15.00;99.90;;;;;;5059099;28;20028;-57
2023/10/25 10:01:46;;;;;;;86.20;13.70;;;15.10;99.90;;;;;;5047482;28;20447;-57
2023/10/25 10:04:13;;;;;;;100.65;13.40;;;15.10;99.90;;;;;;5048049;28;20045;-57
2023/10/25 10:06:44;;;;;;;87.07;13.38;;;15.10;99.90;;;;;;5058439;28;20061;-57
2023/10/25 10:09:27;;;;;;;81.40;11.98;;;15.10;99.90;;;;;;5065988;28;20498;-57
2023/10/25 10:11:56;;;;;;;70.30;11.80;;;15.20;99.90;;;;;;5056589;28;20021;-57
2023/10/25 10:14:32;;;;;;;79.68;12.30;;;15.20;99.90;;;;;;5063480;28;20020;-57
2023/10/25 10:17:18;;;;;;;;;;;15.20;99.90;;;;;;5059196;28;20079;-57
2023/10/25 10:19:45;;;;;;;93.95;12.52;;;15.20;99.90;;;;;;5067064;28;19934;-57
2023/10/25 10:22:14;;;;;;;130.15;14.35;;;15.30;99.90;;;;;;5051358;28;20056;-57
2023/10/25 10:24:46;;;;;;;97.30;13.60;;;15.30;99.90;;;;;;5061387;28;20096;-54
2023/10/25 10:27:16;;;;;;;91.90;12.57;;;15.30;99.90;;;;;;5081750;28;20028;-54
2023/10/25 10:29:43;;;;;;;309.58;32.45;;;15.40;99.90;;;;;;5060090;28;20033;-54
2023/10/25 10:32:09;;;;;;;185.57;20.02;;;15.40;99.90;;;;;;5049567;28;20029;-54
2023/10/25 10:34:42;;;;;;;140.25;17.55;;;15.40;99.90;;;;;;5055114;28;20095;-54
2023/10/25 10:37:08;;;;;;;118.03;15.18;;;15.50;99.90;;;;;;5053556;28;20056;-54
2023/10/25 10:39:34;;;;;;;133.43;15.95;;;15.50;99.90;;;;;;5076583;28;20024;-54
2023/10/25 10:42:01;;;;;;;137.88;16.83;;;15.50;99.90;;;;;;5066478;28;20701;-54
2023/10/25 10:44:27;;;;;;;137.55;16.48;;;15.50;99.90;;;;;;5049459;28;20103;-54
2023/10/25 10:46:58;;;;;;;128.07;16.77;;;15.60;99.90;;;;;;5062660;28;20116;-54
2023/10/25 10:49:25;;;;;;;119.13;16.63;;;15.60;99.90;;;;;;5067519;28;20066;-55
2023/10/25 10:51:50;;;;;;;155.40;17.85;;;15.60;99.90;;;;;;5042695;28;20044;-54
2023/10/25 10:54:16;;;;;;;169.80;16.25;;;15.60;99.90;;;;;;5098950;28;20031;-53
2023/10/25 10:56:42;;;;;;;111.38;15.65;;;15.70;99.90;;;;;;5067480;28;20020;-54
2023/10/25 10:59:07;;;;;;;98.70;12.50;;;15.80;99.90;;;;;;5049772;28;20033;-54
2023/10/25 11:01:33;;;;;;;75.85;11.23;;;15.70;99.90;;;;;;5065731;28;20025;-54
2023/10/25 11:03:58;;;;;;;82.80;11.95;;;15.80;99.90;;;;;;5066087;28;20048;-54
2023/10/25 11:06:25;;;;;;;92.10;13.13;;;15.70;99.90;;;;;;5057440;28;20463;-54
2023/10/25 11:08:51;;;;;;;100.63;13.90;;;15.80;99.90;;;;;;5057710;28;20025;-54
2023/10/25 11:11:20;;;;;;;85.75;13.60;;;15.90;99.90;;;;;;5049891;28;20033;-54
2023/10/25 11:13:48;;;;;;;94.70;12.27;;;15.80;99.90;;;;;;5049055;28;20033;-54
2023/10/25 11:16:14;;;;;;;67.93;9.65;;;15.80;99.90;;;;;;5054293;28;20080;-54
2023/10/25 11:18:39;;;;;;;73.18;10.98;;;15.80;99.90;;;;;;5052538;28;20032;-54
2023/10/25 11:21:05;;;;;;;85.85;11.52;;;15.80;99.90;;;;;;5070530;28;20037;-53
2023/10/25 11:23:30;;;;;;;70.15;11.43;;;15.90;99.90;;;;;;5066282;28;20033;-54
2023/10/25 11:25:56;;;;;;;80.47;10.98;;;15.90;99.90;;;;;;5054608;28;20033;-54
2023/10/25 11:28:23;;;;;;;65.18;10.68;;;15.90;99.90;;;;;;5060335;28;20036;-54
2023/10/25 11:30:52;;;;;;;65.60;11.93;;;15.90;99.90;;;;;;5047853;28;20036;-54
2023/10/25 11:33:17;;;;;;;81.28;11.32;;;16.00;99.90;;;;;;5070548;28;20035;-53
2023/10/25 11:35:43;;;;;;;63.80;9.95;;;16.00;99.90;;;;;;5050105;28;20029;-53
2023/10/25 11:38:12;;;;;;;72.78;10.95;;;16.10;99.90;;;;;;5063190;28;20427;-54
2023/10/25 11:40:47;;;;;;;108.10;11.68;;;16.00;99.90;;;;;;5061547;28;20039;-54
2023/10/25 11:43:13;;;;;;;103.15;13.13;;;16.10;99.90;;;;;;5057041;28;20032;-54
2023/10/25 11:45:39;;;;;;;77.78;11.45;;;16.10;99.90;;;;;;5064014;28;20507;-54
2023/10/25 11:48:05;;;;;;;82.20;11.55;;;16.10;99.90;;;;;;5062265;28;20043;-54
2023/10/25 11:50:31;;;;;;;101.15;11.55;;;15.90;99.90;;;;;;5054677;28;20021;-54
2023/10/25 11:52:58;;;;;;;67.53;10.98;;;16.20;99.90;;;;;;5063548;28;20021;-54
2023/10/25 11:55:24;;;;;;;156.38;18.10;;;16.20;99.90;;;;;;5083263;28;20098;-53
2023/10/25 11:57:50;;;;;;;85.57;12.82;;;16.20;99.90;;;;;;5044267;28;20518;-54
2023/10/25 12:00:16;;;;;;;96.40;12.02;;;16.30;99.90;;;;;;5046641;28;20025;-54
2023/10/25 12:02:43;;;;;;;82.15;10.75;;;16.30;99.90;;;;;;5051409;28;20032;-54
2023/10/25 12:05:09;;;;;;;91.70;12.52;;;16.30;99.90;;;;;;5067139;28;20020;-54
2023/10/25 12:07:34;;;;;;;89.35;14.30;;;16.40;99.90;;;;;;5071470;28;20017;-54
2023/10/25 12:10:00;;;;;;;87.47;13.38;;;16.40;99.90;;;;;;5054140;28;20036;-54
2023/10/25 12:12:25;;;;;;;66.35;10.20;;;16.40;99.90;;;;;;5061238;28;20029;-54
2023/10/25 12:14:51;;;;;;;98.20;14.20;;;16.50;99.90;;;;;;5052346;28;20023;-53
2023/10/25 12:17:17;;;;;;;82.50;10.75;;;16.50;99.90;;;;;;5061104;28;20025;-54
2023/10/25 12:19:43;;;;;;;83.18;11.88;;;16.50;99.90;;;;;;5056565;28;20036;-54
2023/10/25 12:22:12;;;;;;;114.30;14.63;;;16.50;99.50;;;;;;5059375;28;20434;-54
2023/10/25 12:24:39;;;;;;;113.38;15.48;;;16.60;99.30;;;;;;5061508;28;20029;-54
2023/10/25 12:27:05;;;;;;;74.78;10.93;;;16.60;99.20;;;;;;5078312;28;20039;-54
2023/10/25 12:29:30;;;;;;;96.70;14.60;;;16.60;99.10;;;;;;5064344;28;20028;-54
2023/10/25 12:31:56;;;;;;;98.38;14.10;;;16.60;99.40;;;;;;5051795;28;20032;-54